Time;durP1;ratioP1;P1;durP2;ratioP2;P2;SDS_P1;SDS_P2;PMS_P1;PMS_P2;Temp;Humidity;BMP_temperature;BMP_pressure;BME280_temperature;BME280_humidity;BME280_pressure;Samples;Min_cycle;Max_cycle;Signal;HPM_P1;HPM_P2
2022/11/06 00:00:30;;;;;;;;;;;;;;;14.58;59.79;94666.22;5054506;28;1963;-59
2022/11/06 00:02:58;;;;;;;;;;;;;;;14.55;59.67;94660.34;5054450;28;1914;-59
2022/11/06 00:08:09;;;;;;;;;;;;;;;14.66;59.54;94651.75;5054591;28;1089;-59
2022/11/06 00:10:35;;;;;;;;;;;;;;;14.65;59.53;94655.50;5054308;28;1059;-59
2022/11/06 00:13:01;;;;;;;;;;;;;;;14.59;59.60;94665.19;5054474;28;969;-59
2022/11/06 00:15:27;;;;;;;;;;;;;;;14.64;59.48;94664.59;5054219;28;1884;-59
2022/11/06 00:17:53;;;;;;;;;;;;;;;14.47;59.78;94661.34;5054155;28;985;-59
2022/11/06 00:20:19;;;;;;;;;;;;;;;14.47;59.79;94666.72;5053825;28;1029;-59
2022/11/06 00:22:45;;;;;;;;;;;;;;;14.54;59.58;94654.16;5054097;28;1988;-59
2022/11/06 00:25:11;;;;;;;;;;;;;;;14.47;59.76;94658.66;5054240;28;1035;-59
2022/11/06 00:27:38;;;;;;;;;;;;;;;14.41;60.32;94656.75;5054024;28;1205;-59
2022/11/06 00:30:05;;;;;;;;;;;;;;;14.50;59.64;94660.16;5053819;28;1105;-60
2022/11/06 00:32:31;;;;;;;;;;;;;;;14.54;59.48;94662.22;5054215;28;1001;-59
2022/11/06 00:34:57;;;;;;;;;;;;;;;14.41;60.35;94665.66;5054189;28;985;-59
2022/11/06 00:37:23;;;;;;;;;;;;;;;14.27;61.05;94658.53;5053742;28;1428;-59
2022/11/06 00:39:49;;;;;;;;;;;;;;;14.31;60.80;94659.81;5054009;28;989;-59
2022/11/06 00:42:15;;;;;;;;;;;;;;;14.29;60.82;94658.34;5053723;28;1945;-59
2022/11/06 00:44:41;;;;;;;;;;;;;;;14.32;60.47;94666.00;5053743;28;1025;-59
2022/11/06 00:47:07;;;;;;;;;;;;;;;14.29;60.68;94666.41;5054004;28;1048;-59
2022/11/06 00:49:33;;;;;;;;;;;;;;;14.21;60.68;94665.53;5053878;28;965;-59
2022/11/06 00:52:00;;;;;;;;;;;;;;;14.25;60.59;94666.78;5053633;28;977;-59
2022/11/06 00:54:26;;;;;;;;;;;;;;;14.28;60.99;94667.44;5053399;28;1701;-59
2022/11/06 00:56:52;;;;;;;;;;;;;;;14.32;60.58;94671.38;5053668;28;1044;-59
2022/11/06 00:59:18;;;;;;;;;;;;;;;14.32;60.15;94669.50;5053446;28;1053;-59
2022/11/06 01:01:44;;;;;;;;;;;;;;;14.37;60.00;94660.88;5053442;28;1997;-59
2022/11/06 01:04:12;;;;;;;;;;;;;;;14.36;60.39;94656.50;5053710;28;989;-59
2022/11/06 01:06:40;;;;;;;;;;;;;;;14.34;60.31;94658.56;5053490;28;1037;-59
2022/11/06 01:09:06;;;;;;;;;;;;;;;14.32;60.57;94661.44;5053362;28;1098;-59
2022/11/06 01:11:36;;;;;;;;;;;;;;;14.33;60.45;94654.25;5053341;28;1065;-58
2022/11/06 01:14:03;;;;;;;;;;;;;;;14.35;60.64;94646.78;5053325;28;973;-59
2022/11/06 01:16:30;;;;;;;;;;;;;;;14.35;60.77;94644.09;5053462;28;1057;-59
2022/11/06 01:18:56;;;;;;;;;;;;;;;14.38;60.44;94639.19;5053444;28;1041;-59
2022/11/06 01:21:27;;;;;;;;;;;;;;;14.43;60.74;94641.25;5035594;28;1993;-59
2022/11/06 01:23:54;;;;;;;;;;;;;;;14.49;60.66;94645.84;5053331;28;999;-59
2022/11/06 01:26:21;;;;;;;;;;;;;;;14.49;60.75;94642.31;5053116;28;1072;-59
2022/11/06 01:28:47;;;;;;;;;;;;;;;14.48;60.96;94644.19;5053066;28;1046;-59
2022/11/06 01:31:15;;;;;;;;;;;;;;;14.42;60.94;94640.44;5052420;28;1219;-59
2022/11/06 01:33:41;;;;;;;;;;;;;;;14.38;60.76;94638.31;5052311;28;1039;-59
2022/11/06 01:36:08;;;;;;;;;;;;;;;14.44;60.87;94635.69;5052257;28;930;-59
2022/11/06 01:38:35;;;;;;;;;;;;;;;14.50;60.73;94630.56;5052087;28;1742;-59
2022/11/06 01:41:01;;;;;;;;;;;;;;;14.57;60.39;94631.44;5052218;28;1021;-59
2022/11/06 01:43:45;;;;;;;;;;;;;;;14.67;60.16;94629.22;5052252;28;1977;-59
2022/11/06 01:46:11;;;;;;;;;;;;;;;14.72;60.28;94632.16;5052152;28;1050;-58
2022/11/06 01:48:39;;;;;;;;;;;;;;;14.83;60.14;94636.97;5051976;28;1046;-59
2022/11/06 01:51:06;;;;;;;;;;;;;;;14.83;60.98;94633.44;5052052;28;1601;-59
2022/11/06 01:53:32;;;;;;;;;;;;;;;14.75;60.53;94642.50;5051919;28;971;-59
2022/11/06 01:55:59;;;;;;;;;;;;;;;14.60;61.16;94637.25;5052186;28;1717;-59
2022/11/06 01:58:27;;;;;;;;;;;;;;;14.60;61.09;94642.63;5052071;28;1013;-59
2022/11/06 02:00:53;;;;;;;;;;;;;;;14.42;61.52;94651.19;5051962;28;1094;-59
2022/11/06 02:03:19;;;;;;;;;;;;;;;14.31;62.08;94645.53;5051930;28;1995;-59
2022/11/06 02:05:45;;;;;;;;;;;;;;;14.30;61.95;94651.94;5034191;28;1093;-59
2022/11/06 02:08:13;;;;;;;;;;;;;;;14.29;61.91;94648.41;5051833;28;1157;-59
2022/11/06 02:10:39;;;;;;;;;;;;;;;14.34;61.84;94655.88;5051832;28;1564;-59
2022/11/06 02:13:15;;;;;;;;;;;;;;;14.36;62.27;94654.69;5051815;28;1070;-59
2022/11/06 02:15:47;;;;;;;;;;;;;;;14.37;61.86;94663.56;5051944;28;982;-59
2022/11/06 02:18:25;;;;;;;;;;;;;;;14.37;61.90;94660.88;5051813;28;1010;-59
2022/11/06 02:21:06;;;;;;;;;;;;;;;14.33;62.08;94662.31;5051653;28;1098;-59
2022/11/06 02:23:32;;;;;;;;;;;;;;;14.32;62.09;94656.06;5051799;28;1910;-59
2022/11/06 02:26:07;;;;;;;;;;;;;;;14.32;62.21;94663.31;5051827;28;1002;-58
2022/11/06 02:28:35;;;;;;;;;;;;;;;14.33;61.63;94660.44;5051725;28;993;-59
2022/11/06 02:31:04;;;;;;;;;;;;;;;14.30;61.70;94670.75;5007283;28;1279869;-59
2022/11/06 02:33:33;;;;;;;;;;;;;;;14.30;61.09;94665.38;5052533;28;1062;-60
2022/11/06 02:36:11;;;;;;;;;;;;;;;14.34;60.35;94672.00;5052511;28;1070;-59
2022/11/06 02:38:40;;;;;;;;;;;;;;;14.29;60.70;94661.03;5052391;28;1492;-59
2022/11/06 02:41:09;;;;;;;;;;;;;;;14.18;61.49;94671.28;5052557;28;998;-59
2022/11/06 02:43:40;;;;;;;;;;;;;;;14.14;61.36;94666.50;5055637;28;1985;-59
2022/11/06 02:46:10;;;;;;;;;;;;;;;14.23;60.79;94679.59;5038524;28;1046;-59
2022/11/06 02:48:39;;;;;;;;;;;;;;;14.25;60.72;94669.47;5056173;28;993;-59
2022/11/06 02:51:08;;;;;;;;;;;;;;;14.23;60.59;94671.53;5056120;28;1021;-59
2022/11/06 02:53:36;;;;;;;;;;;;;;;14.15;61.38;94676.22;5055831;28;1121;-61
2022/11/06 02:56:05;;;;;;;;;;;;;;;14.09;61.54;94674.31;5055826;28;1599;-59
2022/11/06 02:58:31;;;;;;;;;;;;;;;14.17;61.17;94685.78;5055729;28;1054;-59
2022/11/06 03:01:06;;;;;;;;;;;;;;;14.18;61.29;94673.16;5056066;28;1064;-59
2022/11/06 03:03:34;;;;;;;;;;;;;;;14.10;61.32;94684.06;5055532;28;1902;-59
2022/11/06 03:06:11;;;;;;;;;;;;;;;14.08;61.25;94678.88;5055718;28;1054;-59
2022/11/06 03:08:53;;;;;;;;;;;;;;;14.08;61.40;94681.56;5055602;28;1046;-59
2022/11/06 03:11:27;;;;;;;;;;;;;;;14.04;61.89;94682.97;5055544;28;1285;-59
2022/11/06 03:13:57;;;;;;;;;;;;;;;13.94;62.09;94674.38;5055704;28;1041;-59
2022/11/06 03:16:38;;;;;;;;;;;;;;;14.05;61.60;94688.13;5055567;28;978;-59
2022/11/06 03:19:18;;;;;;;;;;;;;;;14.04;61.42;94677.59;5055478;28;970;-59
2022/11/06 03:21:59;;;;;;;;;;;;;;;13.96;61.73;94694.69;5055644;28;1973;-59
2022/11/06 03:24:41;;;;;;;;;;;;;;;14.01;61.53;94688.72;5055458;28;1037;-59
2022/11/06 03:27:19;;;;;;;;;;;;;;;13.99;61.68;94688.91;5055253;28;1108;-58
2022/11/06 03:29:49;;;;;;;;;;;;;;;14.08;61.74;94694.16;5055157;28;1043;-59
2022/11/06 03:32:30;;;;;;;;;;;;;;;14.13;61.40;94695.22;5055085;28;1066;-59
2022/11/06 03:35:06;;;;;;;;;;;;;;;14.15;61.25;94693.19;5055348;28;1045;-59
2022/11/06 03:37:35;;;;;;;;;;;;;;;14.10;61.67;94690.25;5055004;28;1684;-59
2022/11/06 03:40:07;;;;;;;;;;;;;;;14.07;61.88;94698.69;5055045;28;1094;-59
2022/11/06 03:42:35;;;;;;;;;;;;;;;14.10;61.52;94698.31;5055163;28;1906;-59
2022/11/06 03:45:04;;;;;;;;;;;;;;;14.17;61.43;94699.22;5055157;28;978;-59
2022/11/06 03:47:32;;;;;;;;;;;;;;;14.20;61.65;94696.13;5054881;28;1898;-59
2022/11/06 03:50:01;;;;;;;;;;;;;;;14.14;62.23;94699.59;5054967;28;978;-59
2022/11/06 03:52:33;;;;;;;;;;;;;;;14.23;61.78;94700.28;5054677;28;1143;-59
2022/11/06 03:55:02;;;;;;;;;;;;;;;14.21;61.57;94692.41;5054926;28;1807;-59
2022/11/06 03:57:35;;;;;;;;;;;;;;;14.14;61.94;94691.53;5054836;28;1065;-59
2022/11/06 04:00:04;;;;;;;;;;;;;;;14.15;61.99;94693.19;5054900;28;1029;-59
2022/11/06 04:02:31;;;;;;;;;;;;;;;14.15;61.69;94685.13;5054679;28;1910;-59
2022/11/06 04:04:59;;;;;;;;;;;;;;;14.16;62.48;94702.09;5054524;28;1113;-59
2022/11/06 04:07:27;;;;;;;;;;;;;;;14.13;62.19;94705.16;5054350;28;1049;-59
2022/11/06 04:15:29;;;;;;;;;;;;;;;14.17;62.67;94701.03;5054416;28;1017;-59
2022/11/06 04:17:56;;;;;;;;;;;;;;;14.17;62.41;94704.59;5054364;28;969;-60
2022/11/06 04:23:10;;;;;;;;;;;;;;;14.30;62.26;94703.84;5054414;28;1906;-59
2022/11/06 04:28:41;;;;;;;;;;;;;;;14.21;62.87;94700.47;5054365;28;970;-59
2022/11/06 04:31:25;;;;;;;;;;;;;;;14.21;62.57;94700.47;5036298;28;1128;-60
2022/11/06 04:33:56;;;;;;;;;;;;;;;14.18;62.82;94700.84;5054164;28;986;-59
2022/11/06 04:36:23;;;;;;;;;;;;;;;14.11;63.12;94697.28;5053884;28;1054;-60
2022/11/06 04:38:52;;;;;;;;;;;;;;;14.11;62.92;94696.44;5053882;28;1491;-59
2022/11/06 04:41:40;;;;;;;;;;;;;;;14.15;62.76;94690.50;5054040;28;1032;-59
2022/11/06 04:44:13;;;;;;;;;;;;;;;14.21;62.46;94700.47;5053998;28;1033;-59
2022/11/06 04:46:45;;;;;;;;;;;;;;;14.21;62.39;94694.28;5053831;28;1622;-59
2022/11/06 04:49:12;;;;;;;;;;;;;;;14.23;62.24;94698.44;5053837;28;1045;-59
2022/11/06 04:51:39;;;;;;;;;;;;;;;14.24;62.63;94697.38;5053884;28;1024;-59
2022/11/06 04:54:07;;;;;;;;;;;;;;;14.23;62.85;94694.91;5053778;28;1811;-59
2022/11/06 04:56:35;;;;;;;;;;;;;;;14.16;63.05;94700.22;5053657;28;1042;-59
2022/11/06 04:59:01;;;;;;;;;;;;;;;14.19;62.83;94704.38;5053751;28;1064;-59
2022/11/06 05:01:28;;;;;;;;;;;;;;;14.24;62.87;94700.06;5053453;28;1906;-59
2022/11/06 05:03:54;;;;;;;;;;;;;;;14.25;63.02;94698.25;5053394;28;1102;-59
2022/11/06 05:06:20;;;;;;;;;;;;;;;14.25;62.52;94703.63;5053170;28;1045;-59
2022/11/06 05:08:46;;;;;;;;;;;;;;;14.28;62.22;94705.06;5053670;28;1037;-59
2022/11/06 05:11:12;;;;;;;;;;;;;;;14.27;62.13;94703.44;5053522;28;1037;-59
2022/11/06 05:13:38;;;;;;;;;;;;;;;14.33;62.19;94705.31;5053311;28;1074;-59
2022/11/06 05:16:04;;;;;;;;;;;;;;;14.27;63.01;94706.13;5053425;28;987;-59
2022/11/06 05:18:30;;;;;;;;;;;;;;;14.18;62.89;94726.91;5053224;28;1021;-60
2022/11/06 05:23:44;;;;;;;;;;;;;;;14.06;63.90;94727.44;5053190;28;1973;-58
2022/11/06 05:26:10;;;;;;;;;;;;;;;14.04;64.07;94729.50;5053201;28;1046;-59
2022/11/06 05:28:36;;;;;;;;;;;;;;;14.03;63.99;94737.75;5053153;28;1034;-60
2022/11/06 05:31:02;;;;;;;;;;;;;;;14.06;63.56;94737.38;5052903;28;1107;-61
2022/11/06 05:33:28;;;;;;;;;;;;;;;14.12;63.70;94744.66;5035648;28;1109;-61
2022/11/06 05:35:54;;;;;;;;;;;;;;;14.17;64.00;94736.00;5053087;28;1067;-60
2022/11/06 05:38:20;;;;;;;;;;;;;;;14.16;64.09;94732.47;5052978;28;1714;-60
2022/11/06 05:40:46;;;;;;;;;;;;;;;14.06;64.09;94738.19;5053181;28;1030;-60
2022/11/06 05:43:12;;;;;;;;;;;;;;;14.10;64.14;94741.31;5052967;28;1988;-59
2022/11/06 05:45:38;;;;;;;;;;;;;;;14.13;64.04;94745.47;5052605;28;1319;-61
2022/11/06 05:48:04;;;;;;;;;;;;;;;14.14;63.88;94752.53;5053261;28;1044;-60
2022/11/06 05:50:30;;;;;;;;;;;;;;;14.16;64.01;94755.84;5035511;28;1049;-60
2022/11/06 05:52:58;;;;;;;;;;;;;;;14.17;63.68;94754.81;5053087;28;1066;-59
2022/11/06 05:55:24;;;;;;;;;;;;;;;14.24;63.95;94755.72;5038327;28;1749;-58
2022/11/06 05:57:50;;;;;;;;;;;;;;;14.31;63.49;94759.28;5033110;28;1014;-60
2022/11/06 06:00:16;;;;;;;;;;;;;;;14.30;63.37;94765.69;5032968;28;1030;-59
2022/11/06 06:02:43;;;;;;;;;;;;;;;14.24;63.87;94758.41;5032957;28;1938;-59
2022/11/06 06:05:09;;;;;;;;;;;;;;;14.23;64.17;94762.13;5033195;28;1053;-59
2022/11/06 06:07:35;;;;;;;;;;;;;;;14.24;63.95;94759.22;5033125;28;1320;-59
2022/11/06 06:10:01;;;;;;;;;;;;;;;14.28;63.98;94767.75;5032923;28;1078;-59
2022/11/06 06:12:27;;;;;;;;;;;;;;;14.26;64.00;94772.47;5031866;28;1040;-59
2022/11/06 06:14:54;;;;;;;;;;;;;;;14.24;64.04;94777.22;5031716;28;1074;-59
2022/11/06 06:17:20;;;;;;;;;;;;;;;14.23;64.57;94781.78;5017086;28;1623;-59
2022/11/06 06:19:48;;;;;;;;;;;;;;;14.23;64.70;94784.47;5036967;28;1124;-59
2022/11/06 06:22:14;;;;;;;;;;;;;;;14.23;64.89;94789.84;5036718;28;1902;-59
2022/11/06 06:24:40;;;;;;;;;;;;;;;14.25;65.34;94797.72;5035466;28;1046;-59
2022/11/06 06:27:06;;;;;;;;;;;;;;;14.29;65.21;94803.56;5036607;28;1078;-59
2022/11/06 06:29:32;;;;;;;;;;;;;;;14.33;65.04;94805.66;5036479;28;1042;-59
2022/11/06 06:31:58;;;;;;;;;;;;;;;14.36;65.29;94815.19;5036445;28;1225;-59
2022/11/06 06:34:24;;;;;;;;;;;;;;;14.30;65.61;94819.47;5036409;28;1038;-59
2022/11/06 06:36:51;;;;;;;;;;;;;;;14.31;65.78;94817.63;5036447;28;1067;-59
2022/11/06 06:39:18;;;;;;;;;;;;;;;14.35;66.01;94818.91;5036247;28;1258;-58
2022/11/06 06:41:44;;;;;;;;;;;;;;;14.37;66.44;94823.06;5036332;28;1983;-59
2022/11/06 06:44:11;;;;;;;;;;;;;;;14.44;66.27;94821.28;5018728;28;994;-59
2022/11/06 06:46:37;;;;;;;;;;;;;;;14.40;66.84;94829.94;5036205;28;1117;-59
2022/11/06 06:49:03;;;;;;;;;;;;;;;14.46;66.10;94834.53;5036410;28;1049;-60
2022/11/06 06:51:29;;;;;;;;;;;;;;;14.48;66.06;94837.03;5036280;28;969;-60
2022/11/06 06:53:55;;;;;;;;;;;;;;;14.47;67.03;94849.63;5020897;28;1810;-60
2022/11/06 06:56:21;;;;;;;;;;;;;;;14.47;68.08;94843.44;5056039;28;1008;-60
2022/11/06 06:58:48;;;;;;;;;;;;;;;14.57;67.92;94860.09;5055917;28;978;-59
2022/11/06 07:01:14;;;;;;;;;;;;;;;14.55;68.82;94852.22;5056181;28;970;-59
2022/11/06 07:03:40;;;;;;;;;;;;;;;14.59;68.97;94850.00;5055772;28;1901;-60
2022/11/06 07:06:06;;;;;;;;;;;;;;;14.48;70.25;94855.88;5055993;28;1009;-60
2022/11/06 07:08:32;;;;;;;;;;;;;;;14.43;70.77;94859.13;5055704;28;1046;-60
2022/11/06 07:11:00;;;;;;;;;;;;;;;14.49;71.10;94868.28;5055737;28;1046;-61
2022/11/06 07:13:26;;;;;;;;;;;;;;;14.47;71.60;94868.47;5055593;28;1010;-60
2022/11/06 07:15:52;;;;;;;;;;;;;;;14.51;72.31;94875.13;5055600;28;1603;-60
2022/11/06 07:18:18;;;;;;;;;;;;;;;14.41;72.25;94874.63;5055760;28;1040;-60
2022/11/06 07:20:45;;;;;;;;;;;;;;;14.45;72.09;94884.81;5055689;28;997;-59
2022/11/06 07:23:11;;;;;;;;;;;;;;;14.49;72.15;94887.09;5055427;28;1902;-59
2022/11/06 07:25:37;;;;;;;;;;;;;;;14.52;72.38;94903.69;5055405;28;1085;-59
2022/11/06 07:28:04;;;;;;;;;;;;;;;14.54;72.66;94907.03;5052018;28;1391;-59
2022/11/06 07:30:31;;;;;;;;;;;;;;;14.59;72.83;94906.50;5055364;28;1078;-59
2022/11/06 07:33:01;;;;;;;;;;;;;;;14.63;73.64;94903.22;5055541;28;998;-58
2022/11/06 07:35:27;;;;;;;;;;;;;;;14.66;74.31;94909.25;5055338;28;982;-59
2022/11/06 07:37:54;;;;;;;;;;;;;;;14.62;76.05;94909.63;5050211;28;1417;-59
2022/11/06 07:40:20;;;;;;;;;;;;;;;14.68;75.43;94910.69;5055211;28;1046;-59
2022/11/06 07:42:46;;;;;;;;;;;;;;;14.55;76.34;94924.84;5055062;28;1985;-58
2022/11/06 07:45:12;;;;;;;;;;;;;;;14.64;75.38;94929.13;5055339;28;1061;-59
2022/11/06 07:47:38;;;;;;;;;;;;;;;14.72;75.44;94928.16;5054659;28;1243;-59
2022/11/06 07:50:04;;;;;;;;;;;;;;;14.80;75.63;94925.31;5037396;28;967;-59
2022/11/06 07:52:32;;;;;;;;;;;;;;;14.79;75.78;94937.09;5053960;28;1080;-59
2022/11/06 07:54:58;;;;;;;;;;;;;;;14.74;77.14;94944.94;5054825;28;1933;-59
2022/11/06 07:57:25;;;;;;;;;;;;;;;14.79;76.55;94955.94;5054752;28;1137;-59
2022/11/06 07:59:51;;;;;;;;;;;;;;;14.78;76.34;94956.97;5055073;28;993;-59
2022/11/06 08:02:17;;;;;;;;;;;;;;;14.67;77.62;94957.50;5037184;28;1902;-59
2022/11/06 08:04:43;;;;;;;;;;;;;;;14.67;78.10;94962.03;5054468;28;1219;-59
2022/11/06 08:07:09;;;;;;;;;;;;;;;14.64;77.98;94958.72;5054792;28;1045;-59
2022/11/06 08:09:35;;;;;;;;;;;;;;;14.66;77.35;94965.75;5054622;28;1102;-59
2022/11/06 08:12:01;;;;;;;;;;;;;;;14.68;77.49;94967.22;5054573;28;1041;-60
2022/11/06 08:14:27;;;;;;;;;;;;;;;14.70;77.15;94959.81;5054172;28;1124;-60
2022/11/06 08:16:54;;;;;;;;;;;;;;;14.66;76.73;94966.56;5037019;28;1061;-59
2022/11/06 08:19:20;;;;;;;;;;;;;;;14.63;76.89;94973.19;5054309;28;1224;-59
2022/11/06 08:21:46;;;;;;;;;;;;;;;14.55;77.30;94970.59;5054259;28;1983;-60
2022/11/06 08:24:12;;;;;;;;;;;;;;;14.66;76.32;94969.25;5054023;28;1113;-59
2022/11/06 08:26:39;;;;;;;;;;;;;;;14.70;76.96;94977.78;5054247;28;1040;-60
2022/11/06 08:29:05;;;;;;;;;;;;;;;14.68;77.04;94975.28;5054225;28;1212;-59
2022/11/06 08:31:31;;;;;;;;;;;;;;;14.77;76.36;94979.53;5053968;28;1227;-60
2022/11/06 08:33:57;;;;;;;;;;;;;;;14.80;76.13;94987.22;5054049;28;1274;-59
2022/11/06 08:36:23;;;;;;;;;;;;;;;14.75;76.84;94980.75;5054207;28;1044;-60
2022/11/06 08:38:49;;;;;;;;;;;;;;;14.71;76.44;94993.75;5038949;28;1469;-60
2022/11/06 08:41:16;;;;;;;;;;;;;;;14.69;76.43;94984.22;5033513;28;1056;-60
2022/11/06 08:43:42;;;;;;;;;;;;;;;14.70;75.54;94992.09;5043291;28;1925;-60
2022/11/06 08:46:08;;;;;;;;;;;;;;;14.63;76.08;94989.31;5053939;28;1151;-60
2022/11/06 08:48:35;;;;;;;;;;;;;;;14.57;76.53;94997.31;5053959;28;998;-60
2022/11/06 08:51:02;;;;;;;;;;;;;;;14.61;76.46;94999.44;5053972;28;954;-60
2022/11/06 08:53:28;;;;;;;;;;;;;;;14.66;76.32;94998.84;5053547;28;1202;-61
2022/11/06 08:55:54;;;;;;;;;;;;;;;14.69;76.57;94998.50;5053672;28;1823;-60
2022/11/06 08:58:20;;;;;;;;;;;;;;;14.74;76.51;94995.22;5053639;28;1026;-60
2022/11/06 09:00:46;;;;;;;;;;;;;;;14.76;76.03;94996.72;5053891;28;958;-61
2022/11/06 09:03:14;;;;;;;;;;;;;;;14.79;76.66;94990.09;5035832;28;1910;-61
2022/11/06 09:05:40;;;;;;;;;;;;;;;14.84;76.22;94987.69;5053569;28;1053;-60
2022/11/06 09:08:07;;;;;;;;;;;;;;;14.88;77.30;94993.50;5053629;28;1041;-60
2022/11/06 09:10:33;;;;;;;;;;;;;;;14.83;76.90;95000.31;5053357;28;1066;-63
2022/11/06 09:12:59;;;;;;;;;;;;;;;14.87;77.23;94995.34;5053476;28;1306;-60
2022/11/06 09:15:25;;;;;;;;;;;;;;;14.89;77.31;95009.47;5035770;28;1042;-60
2022/11/06 09:17:52;;;;;;;;;;;;;;;14.97;76.92;95013.91;5053513;28;1017;-60
2022/11/06 09:20:19;;;;;;;;;;;;;;;15.07;77.37;95009.03;5053299;28;1097;-60
2022/11/06 09:22:45;;;;;;;;;;;;;;;15.06;78.12;95015.41;5035473;28;1910;-60
2022/11/06 09:25:12;;;;;;;;;;;;;;;15.11;78.60;95017.56;5053295;28;1049;-59
2022/11/06 09:27:48;;;;;;;;;;;;;;;15.21;77.68;95026.13;5035791;28;975;-60
2022/11/06 09:30:15;;;;;;;;;;;;;;;15.23;77.45;95027.63;5053311;28;1070;-60
2022/11/06 09:32:45;;;;;;;;;;;;;;;15.28;78.36;95037.81;5053354;28;1036;-60
2022/11/06 09:35:11;;;;;;;;;;;;;;;15.33;77.52;95042.63;5053288;28;1316;-60
2022/11/06 09:37:37;;;;;;;;;;;;;;;15.35;78.05;95038.72;5030336;28;1402;-60
2022/11/06 09:40:04;;;;;;;;;;;;;;;15.32;77.79;95043.66;5033510;28;981;-60
2022/11/06 09:42:39;;;;;;;;;;;;;;;15.32;77.56;95043.66;5015580;28;1918;-60
2022/11/06 09:45:12;;;;;;;;;;;;;;;15.31;78.39;95048.22;5052079;28;1204;-60
2022/11/06 09:47:42;;;;;;;;;;;;;;;15.35;77.03;95038.72;5053039;28;1066;-60
2022/11/06 09:50:13;;;;;;;;;;;;;;;15.37;76.98;95042.03;5053141;28;977;-60
2022/11/06 09:52:42;;;;;;;;;;;;;;;15.31;77.36;95041.97;5057192;28;974;-60
2022/11/06 09:55:08;;;;;;;;;;;;;;;15.32;78.15;95039.09;5056995;28;1813;-60
2022/11/06 09:57:50;;;;;;;;;;;;;;;15.39;77.91;95031.06;5057197;28;1046;-60
2022/11/06 10:00:17;;;;;;;;;;;;;;;15.49;77.41;95036.13;5057070;28;1017;-60
2022/11/06 10:02:46;;;;;;;;;;;;;;;15.56;77.17;95045.94;5056969;28;1915;-60
2022/11/06 10:05:42;;;;;;;;;;;;;;;15.56;76.69;95034.34;5056701;28;1139;-60
2022/11/06 10:08:27;;;;;;;;;;;;;;;15.60;76.67;95030.22;5043987;28;1282;-60
2022/11/06 10:10:55;;;;;;;;;;;;;;;15.65;77.24;95022.38;5057043;28;986;-60
2022/11/06 10:13:40;;;;;;;;;;;;;;;15.69;77.79;95023.66;5038827;28;1189;-60
2022/11/06 10:16:25;;;;;;;;;;;;;;;15.70;77.92;95011.00;5056794;28;1041;-60
2022/11/06 10:18:55;;;;;;;;;;;;;;;15.70;76.85;95013.69;5056777;28;1009;-60
2022/11/06 10:21:28;;;;;;;;;;;;;;;15.59;78.09;95015.06;5056589;28;1061;-60
2022/11/06 10:23:58;;;;;;;;;;;;;;;15.57;78.42;95017.94;5038734;28;1910;-60
2022/11/06 10:26:24;;;;;;;;;;;;;;;15.50;77.41;95019.78;5056643;28;977;-60
2022/11/06 10:28:59;;;;;;;;;;;;;;;15.52;78.53;95022.28;5056724;28;966;-60
2022/11/06 10:31:25;;;;;;;;;;;;;;;15.56;78.77;95023.56;5056174;28;1085;-60
2022/11/06 10:33:55;;;;;;;;;;;;;;;15.58;77.51;95018.81;5056106;28;1108;-60
2022/11/06 10:36:45;;;;;;;;;;;;;;;15.65;78.16;95027.78;5056221;28;1483;-60
2022/11/06 10:39:17;;;;;;;;;;;;;;;15.61;78.13;95013.84;5048479;28;1856;-60
2022/11/06 10:41:46;;;;;;;;;;;;;;;15.65;77.34;95014.31;5056288;28;1975;-60
2022/11/06 10:44:23;;;;;;;;;;;;;;;15.62;78.05;95007.41;5055976;28;1037;-59
2022/11/06 10:46:52;;;;;;;;;;;;;;;15.58;77.70;95011.53;5056144;28;1117;-61
2022/11/06 10:49:33;;;;;;;;;;;;;;;15.59;78.60;95015.06;5056280;28;1026;-61
2022/11/06 10:52:18;;;;;;;;;;;;;;;15.68;78.17;95011.19;5056162;28;1110;-61
2022/11/06 10:55:03;;;;;;;;;;;;;;;15.74;77.97;95007.75;5055824;28;1435;-61
2022/11/06 10:57:48;;;;;;;;;;;;;;;15.83;77.31;95013.81;5055295;28;1070;-61
2022/11/06 11:00:15;;;;;;;;;;;;;;;15.90;77.42;95013.88;5055895;28;1154;-61
2022/11/06 11:02:46;;;;;;;;;;;;;;;15.88;77.08;95014.06;5037464;28;1985;-61
2022/11/06 11:05:13;;;;;;;;;;;;;;;15.84;77.54;95011.94;5055955;28;1045;-62
2022/11/06 11:07:41;;;;;;;;;;;;;;;15.83;76.75;95004.91;5055742;28;1330;-61
2022/11/06 11:10:22;;;;;;;;;;;;;;;15.91;77.16;95008.25;5037792;28;1013;-61
2022/11/06 11:12:49;;;;;;;;;;;;;;;15.98;77.00;95005.63;5055737;28;1054;-61
2022/11/06 11:15:18;;;;;;;;;;;;;;;16.04;76.46;95004.81;5055702;28;1025;-61
2022/11/06 11:18:04;;;;;;;;;;;;;;;16.06;77.01;95002.75;5055695;28;1046;-62
2022/11/06 11:20:31;;;;;;;;;;;;;;;16.11;76.70;95004.88;5055123;28;1143;-62
2022/11/06 11:23:03;;;;;;;;;;;;;;;16.10;77.26;95004.03;5055629;28;1902;-62
2022/11/06 11:25:30;;;;;;;;;;;;;;;16.03;75.68;95000.47;5055546;28;1085;-61
2022/11/06 11:27:56;;;;;;;;;;;;;;;16.03;76.51;94996.94;5037870;28;1044;-60
2022/11/06 11:30:25;;;;;;;;;;;;;;;16.01;76.30;94994.44;5054856;28;1097;-60
2022/11/06 11:32:51;;;;;;;;;;;;;;;16.00;76.32;94990.91;5055318;28;1046;-63
2022/11/06 11:35:20;;;;;;;;;;;;;;;16.00;76.26;94999.00;5055240;28;1132;-63
2022/11/06 11:37:46;;;;;;;;;;;;;;;15.99;76.30;94988.41;5055350;28;1792;-61
2022/11/06 11:40:34;;;;;;;;;;;;;;;16.03;76.22;94992.41;5055101;28;1075;-62
2022/11/06 11:43:19;;;;;;;;;;;;;;;16.08;75.26;94986.38;5054832;28;1913;-61
2022/11/06 11:46:02;;;;;;;;;;;;;;;16.17;75.28;94994.13;5055369;28;1037;-61
2022/11/06 11:48:43;;;;;;;;;;;;;;;16.26;75.14;94997.50;5055158;28;1055;-61
2022/11/06 11:51:23;;;;;;;;;;;;;;;16.31;74.02;94989.59;5054550;28;957;-61
2022/11/06 11:53:50;;;;;;;;;;;;;;;16.37;74.40;94987.97;5054893;28;2070;-61
2022/11/06 11:56:18;;;;;;;;;;;;;;;16.49;72.92;94996.34;5054792;28;1078;-61
2022/11/06 11:58:51;;;;;;;;;;;;;;;16.50;73.27;94988.03;5055006;28;970;-61
2022/11/06 12:01:18;;;;;;;;;;;;;;;16.52;74.24;94987.81;5054876;28;966;-61
2022/11/06 12:03:48;;;;;;;;;;;;;;;16.44;74.49;94988.00;5053929;28;1983;-61
2022/11/06 12:06:18;;;;;;;;;;;;;;;16.38;72.76;94989.66;5054437;28;989;-61
2022/11/06 12:08:46;;;;;;;;;;;;;;;16.32;72.00;94987.75;5054863;28;1029;-62
2022/11/06 12:11:15;;;;;;;;;;;;;;;16.27;72.94;94984.81;5054766;28;1072;-61
2022/11/06 12:13:41;;;;;;;;;;;;;;;16.31;73.87;94986.91;5036603;28;1058;-61
2022/11/06 12:16:15;;;;;;;;;;;;;;;16.37;73.00;94978.03;5053560;28;1078;-61
2022/11/06 12:18:44;;;;;;;;;;;;;;;16.38;73.20;94976.16;5054426;28;1008;-61
2022/11/06 12:21:10;;;;;;;;;;;;;;;16.42;73.25;94979.28;5054417;28;1054;-61
2022/11/06 12:23:42;;;;;;;;;;;;;;;16.46;73.65;94978.69;5054209;28;1906;-61
2022/11/06 12:26:23;;;;;;;;;;;;;;;16.41;75.79;94983.88;5054083;28;1078;-61
2022/11/06 12:28:51;;;;;;;;;;;;;;;16.43;77.56;94984.50;5054369;28;1080;-61
2022/11/06 12:31:23;;;;;;;;;;;;;;;16.36;77.40;94986.31;5053887;28;1128;-62
2022/11/06 12:33:51;;;;;;;;;;;;;;;16.33;78.05;94995.66;5054210;28;1093;-62
2022/11/06 12:36:19;;;;;;;;;;;;;;;16.33;77.16;94990.25;5053963;28;1026;-61
2022/11/06 12:38:48;;;;;;;;;;;;;;;16.37;76.88;94996.06;5054138;28;1514;-62
2022/11/06 12:41:20;;;;;;;;;;;;;;;16.37;77.36;94993.38;5054137;28;1046;-61
2022/11/06 12:43:47;;;;;;;;;;;;;;;16.26;78.13;95000.19;5053806;28;1902;-61
2022/11/06 12:46:13;;;;;;;;;;;;;;;16.28;77.09;94992.72;5053889;28;1046;-61
2022/11/06 12:48:57;;;;;;;;;;;;;;;16.25;77.09;94993.13;5054087;28;1204;-61
2022/11/06 12:51:23;;;;;;;;;;;;;;;16.11;77.59;94994.91;5053951;28;1049;-61
2022/11/06 12:54:00;;;;;;;;;;;;;;;16.01;78.86;94983.63;5053765;28;1820;-61
2022/11/06 12:56:33;;;;;;;;;;;;;;;16.01;78.45;94994.44;5053415;28;1082;-61
2022/11/06 12:58:59;;;;;;;;;;;;;;;16.05;78.91;94993.03;5053794;28;1580;-61
2022/11/06 13:01:35;;;;;;;;;;;;;;;16.04;80.07;94999.44;5053813;28;1049;-61
2022/11/06 13:04:01;;;;;;;;;;;;;;;16.12;79.35;94998.44;5053741;28;1973;-61
2022/11/06 13:06:39;;;;;;;;;;;;;;;16.14;78.80;95005.31;5053324;28;969;-61
2022/11/06 13:09:20;;;;;;;;;;;;;;;16.17;77.95;95004.91;5035915;28;1157;-61
2022/11/06 13:12:05;;;;;;;;;;;;;;;16.15;77.43;95001.56;5053733;28;969;-62
2022/11/06 13:14:37;;;;;;;;;;;;;;;16.07;77.30;95007.13;5053410;28;1074;-61
2022/11/06 13:17:14;;;;;;;;;;;;;;;16.02;77.22;95011.47;5053522;28;1053;-61
2022/11/06 13:19:43;;;;;;;;;;;;;;;16.07;77.29;95008.97;5053696;28;862;-61
2022/11/06 13:22:17;;;;;;;;;;;;;;;16.10;76.90;95014.81;5053530;28;1915;-61
2022/11/06 13:24:47;;;;;;;;;;;;;;;16.16;76.69;95008.66;5053235;28;1034;-61